Time;durP1;ratioP1;P1;durP2;ratioP2;P2;SDS_P1;SDS_P2;PMS_P1;PMS_P2;Temp;Humidity;BMP_temperature;BMP_pressure;BME280_temperature;BME280_humidity;BME280_pressure;Samples;Min_cycle;Max_cycle;Signal;HPM_P1;HPM_P2
2023/04/27 00:01:18;;;;;;;12.07;7.37;;;3.60;86.10;;;;;;4939487;29;20207;-85
2023/04/27 00:03:44;;;;;;;16.27;14.83;;;3.60;86.10;;;;;;4939669;29;20197;-85
2023/04/27 00:06:10;;;;;;;19.13;14.73;;;3.60;86.00;;;;;;4939515;28;20211;-85
2023/04/27 00:08:36;;;;;;;18.33;16.50;;;3.60;86.20;;;;;;4939420;29;20566;-84
2023/04/27 00:11:02;;;;;;;18.37;16.33;;;3.60;86.20;;;;;;4939387;29;20193;-85
2023/04/27 00:13:27;;;;;;;11.43;8.50;;;3.60;86.10;;;;;;4939471;29;20612;-85
2023/04/27 00:15:53;;;;;;;9.47;8.40;;;3.70;86.00;;;;;;4940247;28;20243;-85
2023/04/27 00:18:19;;;;;;;17.87;16.23;;;3.70;85.90;;;;;;4940293;29;20565;-85
2023/04/27 00:20:45;;;;;;;17.77;15.90;;;3.50;85.70;;;;;;4957954;28;20196;-86
2023/04/27 00:23:11;;;;;;;17.93;16.07;;;3.50;86.10;;;;;;4957853;29;20539;-85
2023/04/27 00:25:37;;;;;;;17.00;15.60;;;3.50;86.10;;;;;;4958066;28;20259;-85
2023/04/27 00:28:02;;;;;;;13.07;9.27;;;3.30;86.30;;;;;;4957906;28;20196;-85
2023/04/27 00:30:28;;;;;;;13.10;7.90;;;3.30;86.80;;;;;;4940339;29;20180;-85
2023/04/27 00:32:54;;;;;;;16.43;14.50;;;3.30;86.80;;;;;;4939904;29;20207;-85
2023/04/27 00:35:20;;;;;;;16.73;15.17;;;3.30;87.00;;;;;;4956811;28;20702;-85
2023/04/27 00:37:46;;;;;;;16.27;14.73;;;3.30;87.00;;;;;;4939234;29;20294;-85
2023/04/27 00:40:11;;;;;;;16.83;14.97;;;3.40;87.10;;;;;;4939277;29;20681;-86
2023/04/27 00:42:37;;;;;;;13.03;8.23;;;3.40;87.00;;;;;;4939060;29;20183;-86
2023/04/27 00:45:04;;;;;;;13.27;8.90;;;3.40;86.80;;;;;;4956675;28;20173;-86
2023/04/27 00:47:31;;;;;;;12.53;9.23;;;3.30;86.90;;;;;;4938693;29;20331;-86
2023/04/27 00:49:57;;;;;;;16.07;14.70;;;3.30;86.70;;;;;;4938977;29;20227;-86
2023/04/27 00:52:22;;;;;;;15.93;14.33;;;3.30;86.90;;;;;;4938853;29;20218;-86
2023/04/27 00:54:50;;;;;;;16.43;13.90;;;3.30;87.00;;;;;;4938753;29;20180;-85
2023/04/27 00:57:16;;;;;;;16.33;14.23;;;3.30;87.30;;;;;;4938957;29;20624;-85
2023/04/27 00:59:42;;;;;;;10.07;7.70;;;3.30;87.30;;;;;;4956261;28;20179;-85
2023/04/27 01:02:09;;;;;;;10.70;7.87;;;3.30;87.30;;;;;;4938686;29;20208;-85
2023/04/27 01:04:35;;;;;;;15.73;14.10;;;3.20;87.40;;;;;;4956155;29;20236;-85
2023/04/27 01:07:01;;;;;;;21.67;14.07;;;3.20;87.60;;;;;;4938732;29;20199;-84
2023/04/27 01:09:27;;;;;;;15.23;13.63;;;3.20;87.60;;;;;;4955827;28;20164;-86
2023/04/27 01:11:52;;;;;;;15.00;13.57;;;3.20;87.80;;;;;;4938654;29;20221;-85
2023/04/27 01:14:18;;;;;;;9.07;7.73;;;3.10;87.90;;;;;;4938755;29;20187;-85
2023/04/27 01:16:45;;;;;;;8.73;7.83;;;3.10;88.00;;;;;;4938770;29;20294;-85
2023/04/27 01:19:10;;;;;;;14.53;13.00;;;3.00;88.00;;;;;;4956039;29;20181;-85
2023/04/27 01:21:36;;;;;;;15.03;13.40;;;3.00;88.10;;;;;;4938513;29;20293;-85
2023/04/27 01:24:04;;;;;;;15.10;13.53;;;3.10;88.10;;;;;;4938774;29;20658;-84
2023/04/27 01:26:30;;;;;;;14.27;13.07;;;3.10;88.10;;;;;;4940415;29;20297;-86
2023/04/27 01:28:55;;;;;;;15.50;13.90;;;3.00;88.00;;;;;;4938115;29;20684;-86
2023/04/27 01:31:21;;;;;;;13.33;7.37;;;3.20;88.30;;;;;;4938373;29;20649;-85
2023/04/27 01:33:46;;;;;;;8.30;7.07;;;3.30;88.30;;;;;;4955216;29;20182;-85
2023/04/27 01:36:12;;;;;;;15.27;11.70;;;3.40;88.20;;;;;;4937920;28;20192;-85
2023/04/27 01:38:38;;;;;;;13.30;12.10;;;3.40;88.30;;;;;;4938329;29;20269;-85
2023/04/27 01:41:04;;;;;;;12.87;11.57;;;3.50;88.30;;;;;;4937449;29;20836;-85
2023/04/27 01:43:31;;;;;;;14.00;12.30;;;3.60;88.30;;;;;;4937910;29;20208;-85
2023/04/27 01:46:07;;;;;;;9.07;6.43;;;3.60;88.20;;;;;;4955333;28;20173;-85
2023/04/27 01:48:33;;;;;;;11.97;6.47;;;3.80;88.30;;;;;;4955363;29;20166;-86
2023/04/27 01:50:59;;;;;;;14.17;12.00;;;3.80;88.20;;;;;;4955397;29;20236;-86
2023/04/27 01:53:25;;;;;;;13.97;12.63;;;3.90;88.10;;;;;;4937767;29;20180;-86
2023/04/27 01:55:50;;;;;;;13.27;12.13;;;3.90;88.10;;;;;;4937803;28;20645;-85
2023/04/27 01:58:16;;;;;;;15.47;12.83;;;3.90;88.00;;;;;;4937890;29;20183;-85
2023/04/27 02:00:41;;;;;;;8.63;6.00;;;3.80;87.90;;;;;;4937814;29;20199;-86
2023/04/27 02:03:07;;;;;;;6.30;5.63;;;3.90;88.00;;;;;;4937784;29;20205;-86
2023/04/27 02:05:32;;;;;;;6.80;5.47;;;3.80;87.90;;;;;;4954896;29;20177;-86
2023/04/27 02:07:58;;;;;;;12.33;11.30;;;3.80;87.90;;;;;;4937706;29;20198;-86
2023/04/27 02:10:23;;;;;;;12.53;11.53;;;3.70;87.80;;;;;;4937639;28;20282;-86
2023/04/27 02:12:49;;;;;;;12.97;11.87;;;3.70;87.80;;;;;;4937804;29;20254;-85
2023/04/27 02:15:15;;;;;;;14.40;13.20;;;3.50;87.90;;;;;;4937647;29;20179;-85
2023/04/27 02:17:40;;;;;;;7.00;6.30;;;3.60;87.90;;;;;;4954756;28;20210;-86
2023/04/27 02:20:07;;;;;;;9.80;6.70;;;3.40;87.70;;;;;;4954999;29;20688;-86
2023/04/27 02:22:34;;;;;;;15.33;14.00;;;3.40;87.60;;;;;;4937601;29;20183;-86
2023/04/27 02:24:59;;;;;;;14.03;12.73;;;3.40;87.70;;;;;;4954730;28;20652;-85
2023/04/27 02:27:25;;;;;;;14.23;13.20;;;3.40;87.50;;;;;;4954718;28;20225;-86
2023/04/27 02:29:50;;;;;;;14.60;13.20;;;3.30;87.50;;;;;;4954961;29;20181;-86
2023/04/27 02:32:16;;;;;;;7.17;6.57;;;3.30;87.40;;;;;;4954993;28;20181;-85
2023/04/27 02:34:41;;;;;;;9.33;6.90;;;3.20;87.20;;;;;;4937594;29;20176;-85
2023/04/27 02:37:07;;;;;;;14.53;13.43;;;3.30;87.20;;;;;;4954999;28;20285;-85
2023/04/27 02:39:33;;;;;;;14.30;13.13;;;3.30;87.00;;;;;;4954884;28;20275;-86
2023/04/27 02:41:58;;;;;;;13.13;11.97;;;3.10;87.10;;;;;;4937416;29;20208;-85
2023/04/27 02:44:24;;;;;;;13.37;12.17;;;3.10;87.70;;;;;;4954562;28;20591;-85
2023/04/27 02:46:49;;;;;;;9.50;6.80;;;3.00;87.70;;;;;;4937256;29;20227;-85
2023/04/27 02:49:15;;;;;;;9.80;6.73;;;3.00;88.00;;;;;;4954514;29;20609;-85
2023/04/27 02:51:41;;;;;;;7.83;6.63;;;3.00;88.10;;;;;;4956603;28;20669;-85
2023/04/27 02:54:08;;;;;;;13.97;12.23;;;3.00;88.10;;;;;;4958046;28;20179;-85
2023/04/27 02:56:33;;;;;;;17.63;13.30;;;2.90;88.20;;;;;;4940673;29;20196;-85
2023/04/27 02:58:58;;;;;;;15.80;13.53;;;2.80;88.10;;;;;;4940764;29;20180;-85
2023/04/27 03:01:24;;;;;;;15.93;14.47;;;2.90;88.30;;;;;;4940550;29;20238;-85
2023/04/27 03:03:50;;;;;;;10.77;8.10;;;2.80;88.30;;;;;;4957778;29;20707;-85
2023/04/27 03:06:15;;;;;;;13.80;9.50;;;2.80;88.60;;;;;;4957644;28;20199;-85
2023/04/27 03:08:41;;;;;;;15.63;13.10;;;2.90;88.80;;;;;;4957839;29;20179;-85
2023/04/27 03:11:08;;;;;;;13.93;12.60;;;3.00;88.90;;;;;;4957612;28;20200;-85
2023/04/27 03:13:40;;;;;;;13.87;12.30;;;3.00;89.10;;;;;;4940586;29;20186;-85
2023/04/27 03:16:06;;;;;;;18.10;13.77;;;3.10;89.00;;;;;;4957568;28;20166;-85
2023/04/27 03:18:32;;;;;;;12.40;8.30;;;3.10;88.90;;;;;;4940418;29;20178;-85
2023/04/27 03:21:13;;;;;;;12.77;8.70;;;3.10;88.90;;;;;;4940317;29;20210;-85
2023/04/27 03:23:39;;;;;;;15.33;13.60;;;3.10;88.70;;;;;;4940496;29;20168;-85
2023/04/27 03:26:06;;;;;;;15.00;13.57;;;3.00;88.70;;;;;;4957400;28;20172;-85
2023/04/27 03:28:32;;;;;;;14.50;13.07;;;3.00;88.80;;;;;;4940279;29;20235;-85
2023/04/27 03:30:57;;;;;;;20.63;15.07;;;3.00;88.80;;;;;;4957710;29;20278;-85
2023/04/27 03:33:23;;;;;;;16.17;14.10;;;3.00;88.80;;;;;;4957255;28;20232;-85
2023/04/27 03:35:58;;;;;;;10.77;8.30;;;3.10;88.80;;;;;;4939960;29;20723;-85
2023/04/27 03:38:24;;;;;;;11.97;8.13;;;3.10;88.90;;;;;;4940060;29;20202;-85
2023/04/27 03:40:50;;;;;;;15.83;12.67;;;3.10;89.10;;;;;;4940083;29;20214;-85
2023/04/27 03:43:16;;;;;;;14.53;13.23;;;3.20;89.20;;;;;;4957121;29;20685;-85
2023/04/27 03:45:41;;;;;;;14.20;12.80;;;3.30;89.20;;;;;;4939863;29;20183;-85
2023/04/27 03:48:07;;;;;;;20.70;16.03;;;3.30;89.20;;;;;;4939938;29;20577;-85
2023/04/27 03:50:32;;;;;;;13.50;8.43;;;3.30;89.20;;;;;;4957034;29;20183;-85
2023/04/27 03:52:58;;;;;;;12.97;8.90;;;3.30;89.20;;;;;;4939834;29;20685;-85
2023/04/27 03:55:24;;;;;;;18.43;14.70;;;3.30;89.20;;;;;;4939884;29;20553;-85
2023/04/27 03:57:50;;;;;;;16.20;14.60;;;3.30;89.20;;;;;;4956830;28;20287;-86
2023/04/27 04:00:17;;;;;;;18.70;13.83;;;3.30;89.20;;;;;;4939524;29;20298;-85
2023/04/27 04:02:43;;;;;;;15.10;13.60;;;3.30;89.20;;;;;;4939103;29;20172;-85
2023/04/27 04:05:09;;;;;;;13.63;8.97;;;3.30;89.10;;;;;;4939476;29;20215;-85
2023/04/27 04:07:35;;;;;;;18.23;9.70;;;3.30;89.20;;;;;;4956617;28;20226;-85
2023/04/27 04:10:01;;;;;;;13.13;8.67;;;3.30;89.20;;;;;;4939342;29;20207;-85
2023/04/27 04:12:26;;;;;;;17.30;14.03;;;3.30;89.20;;;;;;4940516;29;20184;-85
2023/04/27 04:14:52;;;;;;;15.80;12.57;;;3.20;89.30;;;;;;4956857;29;20171;-85
2023/04/27 04:17:18;;;;;;;17.50;12.73;;;3.10;89.40;;;;;;4939291;29;20192;-86
2023/04/27 04:19:43;;;;;;;17.97;13.73;;;3.00;89.60;;;;;;4956423;28;20653;-85
2023/04/27 04:22:09;;;;;;;18.93;8.77;;;3.10;89.80;;;;;;4939245;29;20281;-85
2023/04/27 04:24:35;;;;;;;15.17;9.03;;;3.10;89.80;;;;;;4956405;28;20179;-85
2023/04/27 04:27:01;;;;;;;13.93;12.60;;;3.10;89.80;;;;;;4956497;28;20795;-85
2023/04/27 04:29:27;;;;;;;14.40;12.77;;;3.10;89.70;;;;;;4939219;29;20255;-85
2023/04/27 04:31:54;;;;;;;16.03;12.80;;;2.90;89.60;;;;;;4939062;29;20203;-85
2023/04/27 04:34:21;;;;;;;15.47;13.23;;;2.90;89.70;;;;;;4939042;29;20278;-85
2023/04/27 04:36:50;;;;;;;12.87;8.70;;;2.90;89.80;;;;;;4938925;29;20310;-85
2023/04/27 04:39:18;;;;;;;13.83;9.30;;;2.90;89.80;;;;;;4956088;28;20175;-85
2023/04/27 04:41:44;;;;;;;12.90;11.43;;;2.90;89.70;;;;;;4938817;29;20689;-85
2023/04/27 04:44:09;;;;;;;14.37;12.47;;;2.90;89.70;;;;;;4938808;29;20226;-85
2023/04/27 04:46:36;;;;;;;13.13;11.57;;;2.90;89.70;;;;;;4938771;29;20242;-85
2023/04/27 04:49:01;;;;;;;13.97;12.67;;;3.00;89.80;;;;;;4938697;29;20175;-85
2023/04/27 04:51:27;;;;;;;11.53;8.60;;;3.20;89.80;;;;;;4938653;29;20180;-85
2023/04/27 04:53:52;;;;;;;14.80;8.93;;;3.20;89.80;;;;;;4938758;29;20188;-85
2023/04/27 04:56:18;;;;;;;11.00;8.47;;;3.30;89.70;;;;;;4955840;28;20234;-84
2023/04/27 04:58:43;;;;;;;16.67;12.67;;;3.30;89.90;;;;;;4955909;28;20226;-85
2023/04/27 05:01:09;;;;;;;13.73;12.43;;;3.40;90.00;;;;;;4938505;29;20207;-84
2023/04/27 05:03:35;;;;;;;15.50;12.60;;;3.60;90.10;;;;;;4938427;29;20564;-85
2023/04/27 05:06:00;;;;;;;15.63;13.77;;;3.70;90.20;;;;;;4938323;28;20226;-85
2023/04/27 05:08:26;;;;;;;17.27;9.40;;;3.80;90.10;;;;;;4955654;29;20218;-85
2023/04/27 05:10:52;;;;;;;12.00;8.70;;;3.90;90.10;;;;;;4955483;28;20195;-85
2023/04/27 05:13:19;;;;;;;17.73;12.13;;;4.10;89.90;;;;;;4938456;29;20187;-85
2023/04/27 05:15:45;;;;;;;18.97;12.57;;;4.10;89.70;;;;;;4939318;29;20212;-85
2023/04/27 05:18:11;;;;;;;12.20;10.77;;;4.10;89.50;;;;;;4939548;29;20267;-85
2023/04/27 05:20:37;;;;;;;12.70;11.13;;;4.20;89.20;;;;;;4956751;28;20286;-85
2023/04/27 05:23:03;;;;;;;17.53;7.93;;;4.30;89.10;;;;;;4956613;29;20180;-85
2023/04/27 05:25:32;;;;;;;22.13;8.37;;;4.30;88.70;;;;;;4956805;29;20707;-85
2023/04/27 05:27:58;;;;;;;17.70;12.30;;;4.30;88.60;;;;;;4939577;29;20203;-86
2023/04/27 05:30:24;;;;;;;13.00;11.63;;;4.40;88.40;;;;;;4939369;29;20557;-86
2023/04/27 05:32:49;;;;;;;15.43;12.93;;;4.40;88.20;;;;;;4939183;29;20220;-86
2023/04/27 05:35:15;;;;;;;16.03;12.77;;;4.50;88.10;;;;;;4956561;29;20181;-85
2023/04/27 05:37:41;;;;;;;17.00;7.67;;;4.60;88.10;;;;;;4956145;28;20209;-85
2023/04/27 05:40:08;;;;;;;12.47;8.13;;;4.70;88.10;;;;;;4939180;29;20280;-85
2023/04/27 05:42:34;;;;;;;14.00;10.03;;;4.80;88.00;;;;;;4939096;29;20186;-85
2023/04/27 05:45:00;;;;;;;13.23;11.93;;;4.70;88.00;;;;;;4938680;29;20603;-85
2023/04/27 05:47:25;;;;;;;13.50;12.10;;;4.70;88.00;;;;;;4939108;29;20710;-85
2023/04/27 05:49:51;;;;;;;16.57;12.50;;;4.70;87.90;;;;;;4938661;29;20182;-85
2023/04/27 05:52:17;;;;;;;15.33;12.43;;;4.60;87.50;;;;;;4939031;29;20202;-86
2023/04/27 05:54:47;;;;;;;8.63;7.53;;;4.60;87.50;;;;;;4938731;29;20182;-86
2023/04/27 05:57:13;;;;;;;9.17;7.40;;;4.60;87.50;;;;;;4939007;29;20233;-86
2023/04/27 05:59:39;;;;;;;14.93;12.90;;;4.80;87.70;;;;;;4938981;29;20719;-86
2023/04/27 06:02:05;;;;;;;18.60;12.83;;;4.80;87.30;;;;;;4956277;29;20206;-86
2023/04/27 06:04:32;;;;;;;12.80;11.50;;;4.90;87.20;;;;;;4938875;29;20213;-85
2023/04/27 06:06:58;;;;;;;13.97;12.77;;;4.90;86.90;;;;;;4938819;29;20218;-85
2023/04/27 06:09:23;;;;;;;10.43;7.20;;;5.00;86.80;;;;;;4938567;29;20182;-85
2023/04/27 06:11:49;;;;;;;13.93;7.67;;;5.10;86.70;;;;;;4938987;29;20206;-85
2023/04/27 06:14:15;;;;;;;14.30;13.10;;;5.10;86.10;;;;;;4938963;29;20246;-84
2023/04/27 06:16:40;;;;;;;14.83;13.40;;;5.20;85.60;;;;;;4961210;28;20196;-85
2023/04/27 06:19:06;;;;;;;16.23;13.43;;;5.30;85.30;;;;;;4944168;29;20194;-84
2023/04/27 06:21:32;;;;;;;13.53;12.50;;;5.40;85.30;;;;;;4944952;29;20685;-85
2023/04/27 06:23:58;;;;;;;7.53;6.83;;;5.60;85.00;;;;;;4962624;28;20186;-85
2023/04/27 06:26:24;;;;;;;8.33;7.23;;;5.80;84.90;;;;;;4964018;28;20212;-84
2023/04/27 06:28:49;;;;;;;15.60;14.00;;;5.90;84.00;;;;;;4965165;29;20568;-84
2023/04/27 06:31:15;;;;;;;14.97;13.73;;;5.90;83.50;;;;;;4960860;29;20177;-84
2023/04/27 06:33:41;;;;;;;16.33;15.07;;;5.90;83.40;;;;;;4962012;28;20245;-84
2023/04/27 06:36:07;;;;;;;16.10;14.53;;;5.80;82.30;;;;;;4961536;28;20586;-84
2023/04/27 06:38:32;;;;;;;7.63;6.87;;;5.80;82.80;;;;;;4961960;29;20190;-84
2023/04/27 06:40:58;;;;;;;13.13;7.67;;;5.80;83.10;;;;;;4942452;29;20217;-85
2023/04/27 06:43:24;;;;;;;6.80;6.20;;;5.90;83.40;;;;;;4958339;28;20186;-85
2023/04/27 06:45:49;;;;;;;14.30;12.80;;;6.00;83.10;;;;;;4941145;29;20267;-85
2023/04/27 06:48:15;;;;;;;19.23;12.67;;;6.20;83.10;;;;;;4941048;29;20696;-85
2023/04/27 06:50:41;;;;;;;13.80;12.40;;;6.20;83.20;;;;;;4941356;29;20199;-85
2023/04/27 06:53:07;;;;;;;14.23;13.03;;;6.30;83.50;;;;;;4941130;29;20187;-85
2023/04/27 06:55:33;;;;;;;8.50;6.60;;;6.30;83.00;;;;;;4941605;29;20186;-85
2023/04/27 06:57:58;;;;;;;12.87;6.90;;;6.20;82.40;;;;;;4958660;28;20203;-85
2023/04/27 07:00:24;;;;;;;14.33;13.10;;;6.20;82.00;;;;;;4941492;29;20207;-85
2023/04/27 07:02:50;;;;;;;14.43;13.00;;;6.30;81.90;;;;;;4940964;29;20184;-85
2023/04/27 07:05:15;;;;;;;14.57;13.47;;;6.40;82.40;;;;;;4958060;28;20175;-85
2023/04/27 07:07:41;;;;;;;15.00;13.77;;;6.30;82.10;;;;;;4957917;28;20191;-85
2023/04/27 07:10:08;;;;;;;12.40;7.30;;;6.40;82.30;;;;;;4958070;28;20251;-85
2023/04/27 07:12:33;;;;;;;8.00;7.30;;;6.40;82.30;;;;;;4941081;29;20178;-85
2023/04/27 07:14:59;;;;;;;15.53;14.10;;;6.60;82.60;;;;;;4941199;29;20560;-86
2023/04/27 07:17:24;;;;;;;15.30;14.10;;;6.70;82.60;;;;;;4957806;28;20716;-85
2023/04/27 07:19:50;;;;;;;16.70;14.97;;;6.70;81.20;;;;;;4958113;29;20186;-85
2023/04/27 07:22:16;;;;;;;15.30;13.83;;;6.70;80.00;;;;;;4957716;28;20222;-85
2023/04/27 07:24:42;;;;;;;11.17;7.60;;;6.80;80.30;;;;;;4940531;29;20687;-85
2023/04/27 07:27:07;;;;;;;8.40;7.53;;;6.60;80.20;;;;;;4958235;28;20195;-86
2023/04/27 07:29:34;;;;;;;8.80;7.23;;;6.80;81.50;;;;;;4940550;29;20230;-86
2023/04/27 07:31:59;;;;;;;15.30;13.90;;;6.90;81.10;;;;;;4960061;28;20191;-85
2023/04/27 07:34:25;;;;;;;16.07;14.63;;;7.10;80.30;;;;;;4945549;29;20180;-86
2023/04/27 07:36:53;;;;;;;16.17;14.87;;;7.30;80.70;;;;;;4963576;28;20203;-85
2023/04/27 07:39:19;;;;;;;16.67;15.37;;;7.50;80.70;;;;;;4963613;29;20234;-85
2023/04/27 07:41:45;;;;;;;9.30;8.03;;;7.60;79.90;;;;;;4946819;29;20640;-85
2023/04/27 07:44:11;;;;;;;10.57;9.50;;;7.40;78.90;;;;;;4947042;29;20214;-86
2023/04/27 07:46:37;;;;;;;18.47;16.87;;;7.10;77.10;;;;;;4962357;28;20184;-85
2023/04/27 07:49:03;;;;;;;24.93;22.80;;;7.20;77.90;;;;;;4941867;29;20571;-85
2023/04/27 07:51:28;;;;;;;17.27;15.77;;;7.20;78.30;;;;;;4958549;29;20254;-85
2023/04/27 07:53:54;;;;;;;18.63;16.90;;;7.40;79.10;;;;;;4941605;29;20186;-85
2023/04/27 07:56:20;;;;;;;11.23;9.90;;;7.50;77.10;;;;;;4959588;28;20681;-84
2023/04/27 07:58:46;;;;;;;10.00;9.00;;;7.50;75.90;;;;;;4959696;29;20175;-85
2023/04/27 08:01:11;;;;;;;15.20;11.60;;;7.70;76.70;;;;;;4958662;28;20259;-85
2023/04/27 08:03:37;;;;;;;18.60;17.03;;;7.80;76.10;;;;;;4958780;29;20176;-86
2023/04/27 08:06:03;;;;;;;19.23;17.37;;;7.80;75.70;;;;;;4957617;28;20171;-85
2023/04/27 08:08:29;;;;;;;19.57;17.83;;;8.00;74.80;;;;;;4957914;28;20171;-85
2023/04/27 08:10:54;;;;;;;21.53;19.70;;;8.20;75.60;;;;;;4940167;29;20196;-85
2023/04/27 08:13:20;;;;;;;11.07;10.00;;;7.90;74.00;;;;;;4939871;29;20184;-85
2023/04/27 08:15:45;;;;;;;11.63;10.47;;;7.90;74.70;;;;;;4939680;29;20186;-85
2023/04/27 08:18:11;;;;;;;21.87;19.77;;;7.80;74.60;;;;;;4939390;29;20207;-85
2023/04/27 08:20:36;;;;;;;19.77;18.27;;;7.90;75.40;;;;;;4956717;29;20203;-85
2023/04/27 08:23:02;;;;;;;19.97;17.90;;;7.80;75.00;;;;;;4939604;29;20171;-85
2023/04/27 08:25:27;;;;;;;18.90;17.47;;;7.70;75.90;;;;;;4956655;28;20591;-85
2023/04/27 08:27:53;;;;;;;13.87;12.27;;;7.60;76.50;;;;;;4956372;28;20202;-86
2023/04/27 08:30:18;;;;;;;13.67;10.13;;;7.50;76.40;;;;;;4939082;29;20230;-85
2023/04/27 08:32:44;;;;;;;13.07;11.00;;;7.70;76.60;;;;;;4939154;29;20180;-85
2023/04/27 08:35:10;;;;;;;21.50;19.87;;;8.00;73.70;;;;;;4956403;29;20232;-85
2023/04/27 08:37:36;;;;;;;21.30;19.53;;;8.00;71.40;;;;;;4956283;28;20226;-85
2023/04/27 08:40:05;;;;;;;21.30;19.37;;;8.30;70.10;;;;;;4956614;28;20172;-85
2023/04/27 08:42:30;;;;;;;21.37;19.53;;;8.50;70.70;;;;;;4939036;29;20215;-85
2023/04/27 08:44:56;;;;;;;14.17;12.70;;;8.90;71.10;;;;;;4938895;29;20318;-85
2023/04/27 08:47:21;;;;;;;14.87;13.37;;;9.20;67.80;;;;;;4938760;29;20202;-85
2023/04/27 08:49:47;;;;;;;23.27;21.30;;;9.30;67.20;;;;;;4956045;28;20179;-86
2023/04/27 08:52:13;;;;;;;24.20;21.87;;;9.10;66.70;;;;;;4938983;29;20187;-85
2023/04/27 08:54:39;;;;;;;22.20;20.60;;;8.70;66.50;;;;;;4938639;29;20227;-85
2023/04/27 08:57:10;;;;;;;23.00;21.33;;;8.80;69.20;;;;;;4938508;29;20222;-85
2023/04/27 08:59:36;;;;;;;23.63;21.73;;;8.70;67.60;;;;;;4938651;29;20179;-86
2023/04/27 09:02:03;;;;;;;15.43;14.13;;;8.90;68.00;;;;;;4955817;28;20736;-85
2023/04/27 09:04:38;;;;;;;14.90;13.60;;;9.30;66.20;;;;;;4939018;29;20547;-85
2023/04/27 09:07:12;;;;;;;22.80;20.83;;;9.60;65.70;;;;;;4938528;29;20615;-84
2023/04/27 09:09:37;;;;;;;25.10;23.00;;;9.80;64.80;;;;;;4938589;29;20175;-85
2023/04/27 09:12:19;;;;;;;22.37;20.53;;;9.80;61.10;;;;;;4955718;29;20191;-86
2023/04/27 09:15:02;;;;;;;21.10;19.37;;;9.90;61.90;;;;;;4938576;29;20167;-85
2023/04/27 09:17:29;;;;;;;14.10;12.80;;;10.00;62.20;;;;;;4938873;29;20199;-84
2023/04/27 09:20:07;;;;;;;19.80;14.40;;;10.00;60.20;;;;;;4955969;29;20230;-85
2023/04/27 09:22:45;;;;;;;18.43;17.03;;;9.80;64.90;;;;;;4938478;29;20183;-85
2023/04/27 09:25:28;;;;;;;21.93;19.97;;;9.70;65.40;;;;;;4938516;29;20167;-85
2023/04/27 09:27:56;;;;;;;22.00;20.50;;;9.40;67.00;;;;;;4938317;29;20226;-85
2023/04/27 09:30:22;;;;;;;21.80;20.10;;;9.60;65.00;;;;;;4955458;29;20172;-85
2023/04/27 09:32:56;;;;;;;14.50;12.97;;;9.80;66.70;;;;;;4955276;28;20176;-85
2023/04/27 09:35:30;;;;;;;14.70;13.70;;;9.90;61.10;;;;;;4955292;29;20172;-84
2023/04/27 09:37:56;;;;;;;22.47;20.87;;;9.60;62.40;;;;;;4938296;29;20199;-85
2023/04/27 09:40:28;;;;;;;21.80;20.30;;;10.00;63.20;;;;;;4938144;29;20180;-90
2023/04/27 09:43:01;;;;;;;26.10;23.80;;;10.20;62.20;;;;;;4938286;29;20653;-89
2023/04/27 09:45:27;;;;;;;25.43;23.23;;;10.70;59.40;;;;;;4939205;29;20259;-88
2023/04/27 09:47:53;;;;;;;15.03;13.67;;;10.50;55.10;;;;;;4938157;29;20222;-89
2023/04/27 09:50:20;;;;;;;14.20;13.10;;;10.60;57.70;;;;;;4938780;29;20262;-89
2023/04/27 09:52:46;;;;;;;18.43;16.83;;;10.90;58.10;;;;;;4938190;29;20639;-88
2023/04/27 09:55:18;;;;;;;19.83;17.83;;;10.90;56.50;;;;;;4938136;29;20214;-88
2023/04/27 09:57:52;;;;;;;19.30;17.80;;;10.60;58.30;;;;;;4937994;29;20192;-87
2023/04/27 10:00:33;;;;;;;19.07;17.60;;;10.00;61.50;;;;;;4938235;29;20566;-87
2023/04/27 10:03:11;;;;;;;18.07;16.67;;;10.10;59.80;;;;;;4959735;29;20522;-87
2023/04/27 10:05:55;;;;;;;14.70;13.63;;;10.20;59.70;;;;;;4959104;29;20166;-88
2023/04/27 10:08:21;;;;;;;14.90;13.87;;;10.30;59.40;;;;;;4941922;29;20168;-88
2023/04/27 10:10:47;;;;;;;21.73;20.17;;;10.20;59.70;;;;;;4959417;28;20187;-88
2023/04/27 10:13:25;;;;;;;23.67;21.30;;;10.10;60.80;;;;;;4941796;29;20181;-88
2023/04/27 10:15:51;;;;;;;23.97;21.90;;;9.70;64.30;;;;;;4941997;29;20175;-88
2023/04/27 10:18:29;;;;;;;22.77;21.13;;;9.30;69.50;;;;;;4941796;29;20175;-88
2023/04/27 10:20:56;;;;;;;15.20;13.70;;;9.30;70.20;;;;;;4942171;29;20207;-88
2023/04/27 10:23:23;;;;;;;16.23;14.37;;;9.30;70.90;;;;;;4959542;28;20717;-89
2023/04/27 10:25:48;;;;;;;23.20;21.27;;;9.30;72.30;;;;;;4941893;29;20178;-90
2023/04/27 10:28:16;;;;;;;23.43;21.50;;;9.10;70.40;;;;;;4942146;29;20191;-89
2023/04/27 10:30:45;;;;;;;23.90;21.67;;;8.90;71.50;;;;;;4958809;28;20171;-88
2023/04/27 10:33:14;;;;;;;23.40;21.17;;;9.20;73.00;;;;;;4941617;29;20179;-89
2023/04/27 10:35:42;;;;;;;15.40;14.03;;;9.30;70.30;;;;;;4959313;29;20176;-89
2023/04/27 10:38:10;;;;;;;16.57;15.13;;;9.50;69.20;;;;;;4958713;28;20199;-89
2023/04/27 10:40:38;;;;;;;21.57;19.93;;;9.20;69.60;;;;;;4941820;29;20685;-88
2023/04/27 10:43:12;;;;;;;23.93;22.17;;;9.40;69.50;;;;;;4942669;29;20311;-88
2023/04/27 10:45:38;;;;;;;23.47;21.67;;;9.80;68.90;;;;;;4958657;29;20250;-87
2023/04/27 10:48:04;;;;;;;23.90;22.10;;;9.80;69.00;;;;;;4958377;28;20199;-86
2023/04/27 10:50:30;;;;;;;21.93;19.60;;;9.80;66.80;;;;;;4941266;29;20171;-87
2023/04/27 10:53:04;;;;;;;16.20;13.90;;;9.80;67.50;;;;;;4958377;28;20263;-87
2023/04/27 10:55:30;;;;;;;15.67;13.83;;;9.50;68.10;;;;;;4941193;29;20627;-88
2023/04/27 10:57:56;;;;;;;22.93;20.80;;;9.40;66.70;;;;;;4942270;29;20196;-88
2023/04/27 11:00:37;;;;;;;25.30;23.30;;;9.30;67.50;;;;;;4940875;29;20742;-87
2023/04/27 11:03:15;;;;;;;25.17;23.27;;;9.20;69.30;;;;;;4941317;29;20172;-89
2023/04/27 11:05:42;;;;;;;24.90;22.93;;;9.20;70.50;;;;;;4941224;29;20278;-89
2023/04/27 11:08:16;;;;;;;15.03;13.90;;;9.30;69.40;;;;;;4940947;29;20255;-89
2023/04/27 11:10:44;;;;;;;14.80;13.70;;;8.90;68.20;;;;;;4940918;29;20202;-89
2023/04/27 11:13:14;;;;;;;23.83;21.90;;;9.00;67.30;;;;;;4939474;29;20558;-90
2023/04/27 11:15:53;;;;;;;22.70;20.97;;;9.00;67.00;;;;;;4940985;29;20178;-89
2023/04/27 11:18:26;;;;;;;22.93;21.23;;;9.10;66.90;;;;;;4941054;29;20525;-90
2023/04/27 11:20:53;;;;;;;23.57;21.67;;;9.00;67.30;;;;;;4941661;29;20661;-90
2023/04/27 11:23:28;;;;;;;14.50;13.17;;;9.00;68.20;;;;;;4940915;29;20730;-89
2023/04/27 11:25:54;;;;;;;15.07;13.70;;;8.70;68.10;;;;;;4940562;28;20595;-89
2023/04/27 11:28:21;;;;;;;23.33;21.67;;;8.70;69.70;;;;;;4940580;29;20180;-90
2023/04/27 11:30:54;;;;;;;23.87;22.17;;;8.70;70.30;;;;;;4940703;29;20186;-89
2023/04/27 11:33:21;;;;;;;24.60;22.07;;;9.00;70.60;;;;;;4941621;29;20179;-89
2023/04/27 11:35:46;;;;;;;24.10;22.33;;;9.00;70.20;;;;;;4958336;28;20172;-89
2023/04/27 11:38:16;;;;;;;23.77;21.57;;;9.10;70.10;;;;;;4940349;29;20199;-89
2023/04/27 11:40:42;;;;;;;15.00;13.63;;;9.30;69.30;;;;;;4940879;29;20203;-89
2023/04/27 11:43:14;;;;;;;16.77;13.90;;;9.40;69.10;;;;;;4940217;29;20183;-89
2023/04/27 11:45:46;;;;;;;24.07;22.17;;;9.30;66.80;;;;;;4940406;29;20175;-89
2023/04/27 11:48:15;;;;;;;23.90;21.80;;;9.50;68.50;;;;;;4940298;29;20205;-89
2023/04/27 11:50:47;;;;;;;22.73;20.93;;;9.80;67.90;;;;;;4940101;29;20195;-89
2023/04/27 11:53:12;;;;;;;23.40;21.63;;;10.00;67.90;;;;;;4940242;29;20182;-90
2023/04/27 11:55:40;;;;;;;14.33;13.13;;;10.00;65.90;;;;;;4939989;29;20183;-90
2023/04/27 11:58:06;;;;;;;15.47;14.23;;;10.20;66.30;;;;;;4939783;29;20207;-89
2023/04/27 12:00:32;;;;;;;22.87;20.77;;;9.80;64.00;;;;;;4939870;29;20187;-89
2023/04/27 12:02:57;;;;;;;21.70;19.73;;;10.00;66.50;;;;;;4939892;29;20175;-90
2023/04/27 12:05:23;;;;;;;23.57;21.53;;;10.00;63.70;;;;;;4939837;29;20179;-90
2023/04/27 12:07:49;;;;;;;21.90;20.10;;;9.80;64.60;;;;;;4940689;29;20191;-90
2023/04/27 12:10:14;;;;;;;20.90;19.20;;;10.10;65.10;;;;;;4939930;28;20688;-90
2023/04/27 12:12:40;;;;;;;15.73;14.33;;;10.20;66.30;;;;;;4940370;29;20234;-90
2023/04/27 12:15:07;;;;;;;14.60;13.20;;;10.10;65.10;;;;;;4939719;29;20566;-90
2023/04/27 12:17:32;;;;;;;21.53;19.97;;;10.00;65.00;;;;;;4940351;29;20211;-90
2023/04/27 12:19:58;;;;;;;22.23;20.30;;;10.00;65.80;;;;;;4939707;29;20654;-90
2023/04/27 12:22:24;;;;;;;21.53;19.80;;;9.90;66.60;;;;;;4939587;29;20293;-90
2023/04/27 12:24:50;;;;;;;22.67;20.67;;;9.80;66.50;;;;;;4956432;28;20175;-89
2023/04/27 12:27:15;;;;;;;15.23;13.90;;;9.50;64.80;;;;;;4939612;29;20202;-89
2023/04/27 12:29:41;;;;;;;15.40;14.23;;;9.40;67.00;;;;;;4939387;29;20193;-89
2023/04/27 12:32:07;;;;;;;22.30;20.60;;;9.20;66.80;;;;;;4939355;29;20235;-90
2023/04/27 12:34:33;;;;;;;22.20;20.53;;;9.30;65.90;;;;;;4940088;29;20183;-89
2023/04/27 12:36:59;;;;;;;21.57;19.87;;;9.40;66.10;;;;;;4939278;29;20654;-89